sensor_id;sensor_type;location;lat;lon;timestamp;P1;durP1;ratioP1;P2;durP2;ratioP2
10902;SDS011;5504;47.312;11.060;2023-04-01T00:01:59;0.50;;;0.50;;
10902;SDS011;5504;47.312;11.060;2023-04-01T00:04:25;0.77;;;0.50;;
10902;SDS011;5504;47.312;11.060;2023-04-01T00:06:51;0.90;;;0.50;;
10902;SDS011;5504;47.312;11.060;2023-04-01T00:09:17;1.33;;;0.57;;
10902;SDS011;5504;47.312;11.060;2023-04-01T00:11:42;1.43;;;0.50;;
10902;SDS011;5504;47.312;11.060;2023-04-01T00:14:10;0.70;;;0.50;;
10902;SDS011;5504;47.312;11.060;2023-04-01T00:16:36;1.00;;;0.60;;
10902;SDS011;5504;47.312;11.060;2023-04-01T00:19:02;1.17;;;0.60;;
10902;SDS011;5504;47.312;11.060;2023-04-01T00:21:28;0.90;;;0.60;;
10902;SDS011;5504;47.312;11.060;2023-04-01T00:23:54;0.50;;;0.50;;
10902;SDS011;5504;47.312;11.060;2023-04-01T00:26:20;1.60;;;0.60;;
10902;SDS011;5504;47.312;11.060;2023-04-01T00:28:46;0.90;;;0.50;;
10902;SDS011;5504;47.312;11.060;2023-04-01T00:31:13;1.03;;;0.50;;
10902;SDS011;5504;47.312;11.060;2023-04-01T00:33:39;1.70;;;0.70;;
10902;SDS011;5504;47.312;11.060;2023-04-01T00:36:07;0.93;;;0.60;;
10902;SDS011;5504;47.312;11.060;2023-04-01T00:38:33;0.53;;;0.47;;
10902;SDS011;5504;47.312;11.060;2023-04-01T00:40:59;1.53;;;0.60;;
10902;SDS011;5504;47.312;11.060;2023-04-01T00:43:25;1.27;;;0.50;;
10902;SDS011;5504;47.312;11.060;2023-04-01T00:45:51;0.50;;;0.50;;
10902;SDS011;5504;47.312;11.060;2023-04-01T00:48:21;1.10;;;0.70;;
10902;SDS011;5504;47.312;11.060;2023-04-01T00:50:54;1.97;;;0.50;;
10902;SDS011;5504;47.312;11.060;2023-04-01T00:53:32;1.97;;;0.60;;
10902;SDS011;5504;47.312;11.060;2023-04-01T00:56:05;1.07;;;0.60;;
10902;SDS011;5504;47.312;11.060;2023-04-01T00:58:38;1.90;;;0.80;;
10902;SDS011;5504;47.312;11.060;2023-04-01T01:01:07;0.90;;;0.50;;
10902;SDS011;5504;47.312;11.060;2023-04-01T01:03:35;1.13;;;0.63;;
10902;SDS011;5504;47.312;11.060;2023-04-01T01:12:15;0.87;;;0.60;;
10902;SDS011;5504;47.312;11.060;2023-04-01T01:17:40;1.43;;;0.53;;
10902;SDS011;5504;47.312;11.060;2023-04-01T01:23:22;0.60;;;0.60;;
10902;SDS011;5504;47.312;11.060;2023-04-01T01:36:35;0.40;;;0.40;;
10902;SDS011;5504;47.312;11.060;2023-04-01T01:39:04;0.67;;;0.57;;
10902;SDS011;5504;47.312;11.060;2023-04-01T01:41:32;0.77;;;0.60;;
10902;SDS011;5504;47.312;11.060;2023-04-01T01:43:59;1.37;;;0.70;;
10902;SDS011;5504;47.312;11.060;2023-04-01T01:46:29;1.13;;;0.60;;
10902;SDS011;5504;47.312;11.060;2023-04-01T01:48:56;1.10;;;0.60;;
10902;SDS011;5504;47.312;11.060;2023-04-01T01:51:24;1.97;;;0.60;;
10902;SDS011;5504;47.312;11.060;2023-04-01T01:53:52;1.80;;;0.80;;
10902;SDS011;5504;47.312;11.060;2023-04-01T01:56:19;1.47;;;0.60;;
10902;SDS011;5504;47.312;11.060;2023-04-01T01:58:50;0.97;;;0.60;;
10902;SDS011;5504;47.312;11.060;2023-04-01T02:01:23;2.60;;;0.80;;
10902;SDS011;5504;47.312;11.060;2023-04-01T02:03:52;0.70;;;0.63;;
10902;SDS011;5504;47.312;11.060;2023-04-01T02:06:21;1.17;;;0.80;;
10902;SDS011;5504;47.312;11.060;2023-04-01T02:08:55;2.00;;;0.80;;
10902;SDS011;5504;47.312;11.060;2023-04-01T02:11:28;2.20;;;1.00;;
10902;SDS011;5504;47.312;11.060;2023-04-01T02:16:50;0.90;;;0.70;;
10902;SDS011;5504;47.312;11.060;2023-04-01T02:19:20;2.77;;;0.80;;
10902;SDS011;5504;47.312;11.060;2023-04-01T02:21:51;1.93;;;0.93;;
10902;SDS011;5504;47.312;11.060;2023-04-01T02:24:21;1.00;;;0.70;;
10902;SDS011;5504;47.312;11.060;2023-04-01T02:26:51;1.43;;;1.00;;
10902;SDS011;5504;47.312;11.060;2023-04-01T02:29:21;1.43;;;0.70;;
10902;SDS011;5504;47.312;11.060;2023-04-01T02:31:48;1.90;;;0.80;;
10902;SDS011;5504;47.312;11.060;2023-04-01T02:34:15;1.00;;;0.80;;
10902;SDS011;5504;47.312;11.060;2023-04-01T02:36:41;1.10;;;0.90;;
10902;SDS011;5504;47.312;11.060;2023-04-01T02:39:07;2.47;;;1.30;;
10902;SDS011;5504;47.312;11.060;2023-04-01T02:41:38;1.73;;;1.23;;
10902;SDS011;5504;47.312;11.060;2023-04-01T02:44:05;1.50;;;0.83;;
10902;SDS011;5504;47.312;11.060;2023-04-01T02:46:32;1.43;;;1.30;;
10902;SDS011;5504;47.312;11.060;2023-04-01T02:48:57;1.30;;;1.20;;
10902;SDS011;5504;47.312;11.060;2023-04-01T02:51:23;2.47;;;1.30;;
10902;SDS011;5504;47.312;11.060;2023-04-01T02:53:50;1.53;;;1.27;;
10902;SDS011;5504;47.312;11.060;2023-04-01T02:56:15;1.67;;;1.27;;
10902;SDS011;5504;47.312;11.060;2023-04-01T02:58:42;1.70;;;1.60;;
10902;SDS011;5504;47.312;11.060;2023-04-01T03:01:08;2.60;;;1.60;;
10902;SDS011;5504;47.312;11.060;2023-04-01T03:03:33;2.00;;;1.70;;
10902;SDS011;5504;47.312;11.060;2023-04-01T03:06:04;2.27;;;1.90;;
10902;SDS011;5504;47.312;11.060;2023-04-01T03:08:31;2.70;;;1.60;;
10902;SDS011;5504;47.312;11.060;2023-04-01T03:10:56;2.47;;;1.67;;
10902;SDS011;5504;47.312;11.060;2023-04-01T03:13:22;4.20;;;1.60;;
10902;SDS011;5504;47.312;11.060;2023-04-01T03:15:48;3.80;;;1.93;;
10902;SDS011;5504;47.312;11.060;2023-04-01T03:18:13;2.30;;;1.87;;
10902;SDS011;5504;47.312;11.060;2023-04-01T03:20:39;1.60;;;1.50;;
10902;SDS011;5504;47.312;11.060;2023-04-01T03:23:05;4.30;;;1.60;;
10902;SDS011;5504;47.312;11.060;2023-04-01T03:25:30;1.77;;;1.57;;
10902;SDS011;5504;47.312;11.060;2023-04-01T03:27:56;2.23;;;1.53;;
10902;SDS011;5504;47.312;11.060;2023-04-01T03:30:24;2.20;;;1.60;;
10902;SDS011;5504;47.312;11.060;2023-04-01T03:32:50;2.50;;;1.60;;
10902;SDS011;5504;47.312;11.060;2023-04-01T03:35:16;1.50;;;1.40;;
10902;SDS011;5504;47.312;11.060;2023-04-01T03:37:43;1.93;;;1.40;;
10902;SDS011;5504;47.312;11.060;2023-04-01T03:40:09;1.90;;;1.63;;
10902;SDS011;5504;47.312;11.060;2023-04-01T03:42:35;3.80;;;1.57;;
10902;SDS011;5504;47.312;11.060;2023-04-01T03:45:01;1.30;;;1.20;;
10902;SDS011;5504;47.312;11.060;2023-04-01T03:47:28;2.20;;;1.60;;
10902;SDS011;5504;47.312;11.060;2023-04-01T03:49:53;2.40;;;1.57;;
10902;SDS011;5504;47.312;11.060;2023-04-01T03:52:19;1.70;;;1.33;;
10902;SDS011;5504;47.312;11.060;2023-04-01T03:54:45;2.50;;;1.70;;
10902;SDS011;5504;47.312;11.060;2023-04-01T03:57:11;1.77;;;1.30;;
10902;SDS011;5504;47.312;11.060;2023-04-01T03:59:37;2.07;;;1.17;;
10902;SDS011;5504;47.312;11.060;2023-04-01T04:02:02;1.83;;;1.30;;
10902;SDS011;5504;47.312;11.060;2023-04-01T04:04:28;1.37;;;1.10;;
10902;SDS011;5504;47.312;11.060;2023-04-01T04:06:55;1.40;;;1.10;;
10902;SDS011;5504;47.312;11.060;2023-04-01T04:09:21;1.47;;;1.23;;
10902;SDS011;5504;47.312;11.060;2023-04-01T04:11:47;1.93;;;1.30;;
10902;SDS011;5504;47.312;11.060;2023-04-01T04:14:13;1.80;;;1.20;;
10902;SDS011;5504;47.312;11.060;2023-04-01T04:16:39;1.80;;;1.13;;
10902;SDS011;5504;47.312;11.060;2023-04-01T04:19:05;1.43;;;1.20;;
10902;SDS011;5504;47.312;11.060;2023-04-01T04:21:30;2.03;;;1.30;;
10902;SDS011;5504;47.312;11.060;2023-04-01T04:23:58;1.30;;;1.10;;
10902;SDS011;5504;47.312;11.060;2023-04-01T04:26:25;1.53;;;0.80;;
10902;SDS011;5504;47.312;11.060;2023-04-01T04:28:51;1.00;;;1.00;;
10902;SDS011;5504;47.312;11.060;2023-04-01T04:31:20;1.33;;;1.00;;
10902;SDS011;5504;47.312;11.060;2023-04-01T04:33:47;1.90;;;1.20;;
10902;SDS011;5504;47.312;11.060;2023-04-01T04:36:13;1.47;;;1.10;;
10902;SDS011;5504;47.312;11.060;2023-04-01T04:38:39;2.83;;;1.50;;
10902;SDS011;5504;47.312;11.060;2023-04-01T04:41:09;1.87;;;1.10;;
10902;SDS011;5504;47.312;11.060;2023-04-01T04:43:35;1.40;;;1.20;;
10902;SDS011;5504;47.312;11.060;2023-04-01T04:46:04;1.63;;;1.40;;
10902;SDS011;5504;47.312;11.060;2023-04-01T04:48:33;1.80;;;0.97;;
10902;SDS011;5504;47.312;11.060;2023-04-01T04:50:59;0.87;;;0.83;;
10902;SDS011;5504;47.312;11.060;2023-04-01T04:53:25;1.73;;;0.90;;
10902;SDS011;5504;47.312;11.060;2023-04-01T04:55:51;1.77;;;1.00;;
10902;SDS011;5504;47.312;11.060;2023-04-01T04:58:17;1.10;;;1.00;;
10902;SDS011;5504;47.312;11.060;2023-04-01T05:00:43;1.37;;;1.10;;
10902;SDS011;5504;47.312;11.060;2023-04-01T05:03:09;1.10;;;0.90;;
10902;SDS011;5504;47.312;11.060;2023-04-01T05:05:35;1.60;;;1.10;;
10902;SDS011;5504;47.312;11.060;2023-04-01T05:08:01;1.20;;;1.10;;
10902;SDS011;5504;47.312;11.060;2023-04-01T05:10:27;2.43;;;0.90;;
10902;SDS011;5504;47.312;11.060;2023-04-01T05:12:53;1.80;;;1.20;;
10902;SDS011;5504;47.312;11.060;2023-04-01T05:15:19;1.87;;;1.10;;
10902;SDS011;5504;47.312;11.060;2023-04-01T05:17:45;1.53;;;0.80;;
10902;SDS011;5504;47.312;11.060;2023-04-01T05:20:11;1.00;;;0.90;;
10902;SDS011;5504;47.312;11.060;2023-04-01T05:22:38;1.13;;;0.90;;
10902;SDS011;5504;47.312;11.060;2023-04-01T05:25:04;1.40;;;1.03;;
10902;SDS011;5504;47.312;11.060;2023-04-01T05:27:30;2.70;;;1.13;;
10902;SDS011;5504;47.312;11.060;2023-04-01T05:29:56;2.00;;;1.20;;
10902;SDS011;5504;47.312;11.060;2023-04-01T05:32:22;1.53;;;1.00;;
10902;SDS011;5504;47.312;11.060;2023-04-01T05:34:51;1.40;;;1.10;;
10902;SDS011;5504;47.312;11.060;2023-04-01T05:37:17;2.57;;;1.50;;
10902;SDS011;5504;47.312;11.060;2023-04-01T05:39:43;2.17;;;1.80;;
10902;SDS011;5504;47.312;11.060;2023-04-01T05:42:08;5.60;;;4.97;;
10902;SDS011;5504;47.312;11.060;2023-04-01T05:44:34;10.40;;;9.47;;
10902;SDS011;5504;47.312;11.060;2023-04-01T05:47:01;8.50;;;7.63;;
10902;SDS011;5504;47.312;11.060;2023-04-01T05:49:27;3.30;;;3.00;;
10902;SDS011;5504;47.312;11.060;2023-04-01T05:51:53;15.67;;;11.63;;
10902;SDS011;5504;47.312;11.060;2023-04-01T05:54:19;4.13;;;3.73;;
10902;SDS011;5504;47.312;11.060;2023-04-01T05:56:45;8.43;;;6.87;;
10902;SDS011;5504;47.312;11.060;2023-04-01T05:59:11;7.23;;;6.53;;
10902;SDS011;5504;47.312;11.060;2023-04-01T06:01:37;7.70;;;6.60;;
10902;SDS011;5504;47.312;11.060;2023-04-01T06:04:03;11.30;;;8.70;;
10902;SDS011;5504;47.312;11.060;2023-04-01T06:06:30;10.13;;;8.30;;
10902;SDS011;5504;47.312;11.060;2023-04-01T06:08:57;10.23;;;7.87;;
10902;SDS011;5504;47.312;11.060;2023-04-01T06:11:33;9.07;;;7.07;;
10902;SDS011;5504;47.312;11.060;2023-04-01T06:14:11;8.57;;;7.10;;
10902;SDS011;5504;47.312;11.060;2023-04-01T06:16:44;8.67;;;6.07;;
10902;SDS011;5504;47.312;11.060;2023-04-01T06:38:29;6.60;;;4.90;;
10902;SDS011;5504;47.312;11.060;2023-04-01T06:50:24;4.57;;;3.73;;
10902;SDS011;5504;47.312;11.060;2023-04-01T06:53:04;4.53;;;3.70;;
10902;SDS011;5504;47.312;11.060;2023-04-01T06:55:46;4.00;;;3.60;;
10902;SDS011;5504;47.312;11.060;2023-04-01T07:00:52;4.87;;;3.77;;
10902;SDS011;5504;47.312;11.060;2023-04-01T07:03:23;4.33;;;3.80;;
10902;SDS011;5504;47.312;11.060;2023-04-01T07:06:06;4.50;;;4.10;;
10902;SDS011;5504;47.312;11.060;2023-04-01T07:08:50;7.30;;;6.70;;
10902;SDS011;5504;47.312;11.060;2023-04-01T07:11:27;22.80;;;20.80;;
10902;SDS011;5504;47.312;11.060;2023-04-01T07:14:01;4.27;;;3.83;;
10902;SDS011;5504;47.312;11.060;2023-04-01T07:21:56;3.10;;;2.77;;
10902;SDS011;5504;47.312;11.060;2023-04-01T07:24:39;3.80;;;2.50;;
10902;SDS011;5504;47.312;11.060;2023-04-01T07:27:09;5.20;;;2.40;;
10902;SDS011;5504;47.312;11.060;2023-04-01T07:29:37;2.50;;;2.30;;
10902;SDS011;5504;47.312;11.060;2023-04-01T07:32:38;2.80;;;2.50;;
10902;SDS011;5504;47.312;11.060;2023-04-01T07:37:55;3.43;;;3.13;;
10902;SDS011;5504;47.312;11.060;2023-04-01T07:45:51;6.50;;;3.60;;
10902;SDS011;5504;47.312;11.060;2023-04-01T07:51:41;3.20;;;2.90;;
10902;SDS011;5504;47.312;11.060;2023-04-01T07:54:38;5.30;;;3.03;;
10902;SDS011;5504;47.312;11.060;2023-04-01T07:57:23;4.67;;;3.27;;
10902;SDS011;5504;47.312;11.060;2023-04-01T08:11:06;2.80;;;2.43;;
10902;SDS011;5504;47.312;11.060;2023-04-01T08:14:04;3.33;;;2.40;;
10902;SDS011;5504;47.312;11.060;2023-04-01T08:16:46;2.57;;;2.30;;
10902;SDS011;5504;47.312;11.060;2023-04-01T08:21:51;1.13;;;0.87;;
10902;SDS011;5504;47.312;11.060;2023-04-01T08:27:06;1.13;;;0.50;;
10902;SDS011;5504;47.312;11.060;2023-04-01T08:29:50;1.70;;;0.70;;
10902;SDS011;5504;47.312;11.060;2023-04-01T08:32:25;0.87;;;0.87;;
10902;SDS011;5504;47.312;11.060;2023-04-01T08:35:14;0.93;;;0.83;;
10902;SDS011;5504;47.312;11.060;2023-04-01T08:37:46;0.37;;;0.37;;
10902;SDS011;5504;47.312;11.060;2023-04-01T08:40:27;0.30;;;0.30;;
10902;SDS011;5504;47.312;11.060;2023-04-01T09:11:06;0.67;;;0.33;;
10902;SDS011;5504;47.312;11.060;2023-04-01T09:19:14;0.20;;;0.20;;
10902;SDS011;5504;47.312;11.060;2023-04-01T09:36:16;0.10;;;0.10;;
10902;SDS011;5504;47.312;11.060;2023-04-01T09:39:09;0.13;;;0.13;;
10902;SDS011;5504;47.312;11.060;2023-04-01T09:41:57;0.60;;;0.60;;
10902;SDS011;5504;47.312;11.060;2023-04-01T09:52:25;0.93;;;0.27;;
10902;SDS011;5504;47.312;11.060;2023-04-01T10:54:58;0.77;;;0.27;;
10902;SDS011;5504;47.312;11.060;2023-04-01T11:00:23;0.57;;;0.37;;
10902;SDS011;5504;47.312;11.060;2023-04-01T11:19:55;0.20;;;0.20;;
10902;SDS011;5504;47.312;11.060;2023-04-01T11:30:55;0.30;;;0.30;;
10902;SDS011;5504;47.312;11.060;2023-04-01T11:33:31;0.17;;;0.17;;
10902;SDS011;5504;47.312;11.060;2023-04-01T11:36:16;0.10;;;0.10;;
10902;SDS011;5504;47.312;11.060;2023-04-01T11:39:31;0.10;;;0.10;;
10902;SDS011;5504;47.312;11.060;2023-04-01T11:42:20;0.10;;;0.10;;
10902;SDS011;5504;47.312;11.060;2023-04-01T11:50:50;0.33;;;0.33;;
10902;SDS011;5504;47.312;11.060;2023-04-01T12:05:03;0.87;;;0.20;;
10902;SDS011;5504;47.312;11.060;2023-04-01T12:10:46;0.57;;;0.30;;
10902;SDS011;5504;47.312;11.060;2023-04-01T12:18:55;0.10;;;0.10;;
10902;SDS011;5504;47.312;11.060;2023-04-01T12:50:07;0.20;;;0.20;;
10902;SDS011;5504;47.312;11.060;2023-04-01T12:55:38;0.50;;;0.10;;
10902;SDS011;5504;47.312;11.060;2023-04-01T13:03:48;0.10;;;0.10;;
10902;SDS011;5504;47.312;11.060;2023-04-01T13:06:41;0.27;;;0.10;;
10902;SDS011;5504;47.312;11.060;2023-04-01T13:12:05;0.20;;;0.20;;
10902;SDS011;5504;47.312;11.060;2023-04-01T13:26:39;0.50;;;0.20;;
10902;SDS011;5504;47.312;11.060;2023-04-01T13:29:17;0.10;;;0.10;;
10902;SDS011;5504;47.312;11.060;2023-04-01T13:39:57;0.20;;;0.20;;
10902;SDS011;5504;47.312;11.060;2023-04-01T13:42:40;1.50;;;1.20;;
10902;SDS011;5504;47.312;11.060;2023-04-01T13:45:24;1.37;;;1.00;;
10902;SDS011;5504;47.312;11.060;2023-04-01T14:02:21;0.20;;;0.13;;
10902;SDS011;5504;47.312;11.060;2023-04-01T14:13:39;1.03;;;0.20;;
10902;SDS011;5504;47.312;11.060;2023-04-01T14:22:21;0.20;;;0.20;;
10902;SDS011;5504;47.312;11.060;2023-04-01T14:44:30;0.20;;;0.20;;
10902;SDS011;5504;47.312;11.060;2023-04-01T14:50:17;0.17;;;0.10;;
10902;SDS011;5504;47.312;11.060;2023-04-01T14:52:55;0.10;;;0.10;;
10902;SDS011;5504;47.312;11.060;2023-04-01T14:58:09;0.20;;;0.20;;
10902;SDS011;5504;47.312;11.060;2023-04-01T15:09:28;0.17;;;0.17;;
10902;SDS011;5504;47.312;11.060;2023-04-01T15:12:26;0.10;;;0.10;;
10902;SDS011;5504;47.312;11.060;2023-04-01T15:17:37;0.13;;;0.13;;
10902;SDS011;5504;47.312;11.060;2023-04-01T15:31:01;0.10;;;0.10;;
10902;SDS011;5504;47.312;11.060;2023-04-01T15:47:31;0.20;;;0.20;;
10902;SDS011;5504;47.312;11.060;2023-04-01T15:55:50;0.20;;;0.20;;
10902;SDS011;5504;47.312;11.060;2023-04-01T16:01:16;0.10;;;0.10;;
10902;SDS011;5504;47.312;11.060;2023-04-01T16:15:33;0.37;;;0.20;;
10902;SDS011;5504;47.312;11.060;2023-04-01T16:23:51;0.43;;;0.33;;
10902;SDS011;5504;47.312;11.060;2023-04-01T16:26:37;0.30;;;0.30;;
10902;SDS011;5504;47.312;11.060;2023-04-01T16:32:22;0.30;;;0.30;;
10902;SDS011;5504;47.312;11.060;2023-04-01T16:45:38;0.60;;;0.50;;
10902;SDS011;5504;47.312;11.060;2023-04-01T16:51:17;0.63;;;0.50;;
10902;SDS011;5504;47.312;11.060;2023-04-01T16:53:52;0.60;;;0.40;;
10902;SDS011;5504;47.312;11.060;2023-04-01T16:56:52;0.30;;;0.30;;
10902;SDS011;5504;47.312;11.060;2023-04-01T16:59:27;0.93;;;0.30;;
10902;SDS011;5504;47.312;11.060;2023-04-01T17:02:26;0.40;;;0.30;;
10902;SDS011;5504;47.312;11.060;2023-04-01T17:05:00;0.77;;;0.40;;
10902;SDS011;5504;47.312;11.060;2023-04-01T17:07:46;0.40;;;0.40;;
10902;SDS011;5504;47.312;11.060;2023-04-01T17:10:52;0.50;;;0.50;;
10902;SDS011;5504;47.312;11.060;2023-04-01T17:13:40;0.30;;;0.30;;
10902;SDS011;5504;47.312;11.060;2023-04-01T17:22:07;1.27;;;0.10;;
10902;SDS011;5504;47.312;11.060;2023-04-01T17:24:51;0.20;;;0.20;;
10902;SDS011;5504;47.312;11.060;2023-04-01T17:50:10;1.70;;;0.30;;
10902;SDS011;5504;47.312;11.060;2023-04-01T17:53:05;0.40;;;0.40;;
10902;SDS011;5504;47.312;11.060;2023-04-01T17:58:42;0.37;;;0.37;;
10902;SDS011;5504;47.312;11.060;2023-04-01T18:01:34;0.63;;;0.60;;
10902;SDS011;5504;47.312;11.060;2023-04-01T18:14:43;0.70;;;0.40;;
10902;SDS011;5504;47.312;11.060;2023-04-01T18:17:45;0.53;;;0.50;;
10902;SDS011;5504;47.312;11.060;2023-04-01T18:20:34;0.87;;;0.40;;
10902;SDS011;5504;47.312;11.060;2023-04-01T18:25:50;0.93;;;0.47;;
10902;SDS011;5504;47.312;11.060;2023-04-01T18:28:24;0.50;;;0.50;;
10902;SDS011;5504;47.312;11.060;2023-04-01T18:36:15;0.50;;;0.50;;
10902;SDS011;5504;47.312;11.060;2023-04-01T18:38:55;1.00;;;0.70;;
10902;SDS011;5504;47.312;11.060;2023-04-01T18:41:29;0.60;;;0.60;;
10902;SDS011;5504;47.312;11.060;2023-04-01T18:44:19;0.50;;;0.50;;
10902;SDS011;5504;47.312;11.060;2023-04-01T18:46:57;0.50;;;0.50;;
10902;SDS011;5504;47.312;11.060;2023-04-01T18:49:41;1.60;;;0.60;;
10902;SDS011;5504;47.312;11.060;2023-04-01T18:52:33;1.13;;;0.70;;
10902;SDS011;5504;47.312;11.060;2023-04-01T18:57:55;0.60;;;0.60;;
10902;SDS011;5504;47.312;11.060;2023-04-01T19:00:34;0.50;;;0.50;;
10902;SDS011;5504;47.312;11.060;2023-04-01T19:05:48;0.83;;;0.47;;
10902;SDS011;5504;47.312;11.060;2023-04-01T19:08:34;0.50;;;0.50;;
10902;SDS011;5504;47.312;11.060;2023-04-01T19:13:57;0.57;;;0.50;;
10902;SDS011;5504;47.312;11.060;2023-04-01T19:21:55;0.87;;;0.57;;
10902;SDS011;5504;47.312;11.060;2023-04-01T19:55:13;0.60;;;0.60;;
10902;SDS011;5504;47.312;11.060;2023-04-01T19:58:19;0.60;;;0.60;;
10902;SDS011;5504;47.312;11.060;2023-04-01T20:00:56;1.60;;;0.57;;
10902;SDS011;5504;47.312;11.060;2023-04-01T20:06:15;0.50;;;0.50;;
10902;SDS011;5504;47.312;11.060;2023-04-01T20:09:06;1.13;;;0.50;;
10902;SDS011;5504;47.312;11.060;2023-04-01T20:28:11;0.50;;;0.50;;
10902;SDS011;5504;47.312;11.060;2023-04-01T20:30:52;0.60;;;0.60;;
10902;SDS011;5504;47.312;11.060;2023-04-01T20:42:49;0.50;;;0.50;;
10902;SDS011;5504;47.312;11.060;2023-04-01T20:50:58;0.50;;;0.50;;
10902;SDS011;5504;47.312;11.060;2023-04-01T20:53:34;1.63;;;0.50;;
10902;SDS011;5504;47.312;11.060;2023-04-01T20:56:14;0.40;;;0.40;;
10902;SDS011;5504;47.312;11.060;2023-04-01T21:01:19;0.90;;;0.60;;
10902;SDS011;5504;47.312;11.060;2023-04-01T21:09:29;0.93;;;0.70;;
10902;SDS011;5504;47.312;11.060;2023-04-01T21:15:26;2.63;;;0.70;;
10902;SDS011;5504;47.312;11.060;2023-04-01T21:17:58;1.23;;;0.50;;
10902;SDS011;5504;47.312;11.060;2023-04-01T21:20:54;0.50;;;0.50;;
10902;SDS011;5504;47.312;11.060;2023-04-01T21:38:00;1.00;;;0.67;;
10902;SDS011;5504;47.312;11.060;2023-04-01T21:40:37;0.60;;;0.60;;
10902;SDS011;5504;47.312;11.060;2023-04-01T22:08:16;0.77;;;0.73;;
10902;SDS011;5504;47.312;11.060;2023-04-01T22:13:29;0.80;;;0.80;;
10902;SDS011;5504;47.312;11.060;2023-04-01T22:30:24;1.40;;;0.63;;
10902;SDS011;5504;47.312;11.060;2023-04-01T22:32:58;1.47;;;0.70;;
10902;SDS011;5504;47.312;11.060;2023-04-01T22:35:44;1.30;;;0.77;;
10902;SDS011;5504;47.312;11.060;2023-04-01T22:47:35;2.27;;;0.70;;
10902;SDS011;5504;47.312;11.060;2023-04-01T22:50:29;1.00;;;0.60;;
10902;SDS011;5504;47.312;11.060;2023-04-01T22:53:06;0.83;;;0.60;;
10902;SDS011;5504;47.312;11.060;2023-04-01T22:55:43;1.03;;;0.70;;
10902;SDS011;5504;47.312;11.060;2023-04-01T22:58:21;0.83;;;0.70;;
10902;SDS011;5504;47.312;11.060;2023-04-01T23:01:19;1.80;;;0.60;;
10902;SDS011;5504;47.312;11.060;2023-04-01T23:03:50;2.90;;;0.60;;
10902;SDS011;5504;47.312;11.060;2023-04-01T23:06:18;0.50;;;0.40;;
10902;SDS011;5504;47.312;11.060;2023-04-01T23:08:56;1.23;;;0.60;;
10902;SDS011;5504;47.312;11.060;2023-04-01T23:11:30;0.73;;;0.60;;
10902;SDS011;5504;47.312;11.060;2023-04-01T23:19:29;0.50;;;0.50;;
10902;SDS011;5504;47.312;11.060;2023-04-01T23:22:13;1.07;;;0.60;;
10902;SDS011;5504;47.312;11.060;2023-04-01T23:24:44;0.60;;;0.60;;
10902;SDS011;5504;47.312;11.060;2023-04-01T23:27:37;0.50;;;0.50;;
10902;SDS011;5504;47.312;11.060;2023-04-01T23:30:45;0.80;;;0.60;;
10902;SDS011;5504;47.312;11.060;2023-04-01T23:33:15;2.07;;;0.70;;
10902;SDS011;5504;47.312;11.060;2023-04-01T23:35:53;0.57;;;0.50;;
10902;SDS011;5504;47.312;11.060;2023-04-01T23:38:39;0.60;;;0.60;;
10902;SDS011;5504;47.312;11.060;2023-04-01T23:41:07;0.60;;;0.60;;
10902;SDS011;5504;47.312;11.060;2023-04-01T23:44:15;0.50;;;0.50;;
10902;SDS011;5504;47.312;11.060;2023-04-01T23:46:42;0.50;;;0.50;;
10902;SDS011;5504;47.312;11.060;2023-04-01T23:49:16;0.50;;;0.50;;
10902;SDS011;5504;47.312;11.060;2023-04-01T23:52:20;1.20;;;0.50;;
10902;SDS011;5504;47.312;11.060;2023-04-01T23:57:11;0.63;;;0.50;;
10902;SDS011;5504;47.312;11.060;2023-04-01T23:59:40;0.60;;;0.60;;
